sensor_id;sensor_type;location;lat;lon;timestamp;P1;durP1;ratioP1;P2;durP2;ratioP2
17283;SDS011;8760;52.248;20.952;2023-05-10T00:02:00;8.23;;;4.17;;
17283;SDS011;8760;52.248;20.952;2023-05-10T00:04:31;9.43;;;4.20;;
17283;SDS011;8760;52.248;20.952;2023-05-10T00:06:58;8.30;;;3.57;;
17283;SDS011;8760;52.248;20.952;2023-05-10T00:09:26;7.57;;;3.80;;
17283;SDS011;8760;52.248;20.952;2023-05-10T00:11:53;6.70;;;3.57;;
17283;SDS011;8760;52.248;20.952;2023-05-10T00:14:19;6.10;;;3.70;;
17283;SDS011;8760;52.248;20.952;2023-05-10T00:16:46;7.00;;;3.70;;
17283;SDS011;8760;52.248;20.952;2023-05-10T00:19:13;5.03;;;3.37;;
17283;SDS011;8760;52.248;20.952;2023-05-10T00:21:40;6.97;;;3.20;;
17283;SDS011;8760;52.248;20.952;2023-05-10T00:24:07;5.53;;;3.70;;
17283;SDS011;8760;52.248;20.952;2023-05-10T00:26:35;5.80;;;3.63;;
17283;SDS011;8760;52.248;20.952;2023-05-10T00:29:02;6.03;;;3.60;;
17283;SDS011;8760;52.248;20.952;2023-05-10T00:31:29;5.77;;;3.43;;
17283;SDS011;8760;52.248;20.952;2023-05-10T00:33:55;4.23;;;3.47;;
17283;SDS011;8760;52.248;20.952;2023-05-10T00:36:22;7.33;;;4.00;;
17283;SDS011;8760;52.248;20.952;2023-05-10T00:38:49;4.90;;;3.40;;
17283;SDS011;8760;52.248;20.952;2023-05-10T00:41:16;6.07;;;3.37;;
17283;SDS011;8760;52.248;20.952;2023-05-10T00:43:44;8.03;;;3.97;;
17283;SDS011;8760;52.248;20.952;2023-05-10T00:46:11;5.20;;;3.40;;
17283;SDS011;8760;52.248;20.952;2023-05-10T00:48:40;4.93;;;3.50;;
17283;SDS011;8760;52.248;20.952;2023-05-10T00:51:07;5.67;;;3.60;;
17283;SDS011;8760;52.248;20.952;2023-05-10T00:53:34;6.93;;;3.30;;
17283;SDS011;8760;52.248;20.952;2023-05-10T00:56:01;6.53;;;3.60;;
17283;SDS011;8760;52.248;20.952;2023-05-10T00:58:28;4.07;;;3.17;;
17283;SDS011;8760;52.248;20.952;2023-05-10T01:00:57;6.83;;;3.70;;
17283;SDS011;8760;52.248;20.952;2023-05-10T01:03:25;4.73;;;3.30;;
17283;SDS011;8760;52.248;20.952;2023-05-10T01:05:52;6.40;;;3.50;;
17283;SDS011;8760;52.248;20.952;2023-05-10T01:08:20;5.13;;;3.50;;
17283;SDS011;8760;52.248;20.952;2023-05-10T01:10:47;4.57;;;3.43;;
17283;SDS011;8760;52.248;20.952;2023-05-10T01:13:16;5.97;;;3.27;;
17283;SDS011;8760;52.248;20.952;2023-05-10T01:15:52;3.97;;;3.00;;
17283;SDS011;8760;52.248;20.952;2023-05-10T01:18:20;5.20;;;3.67;;
17283;SDS011;8760;52.248;20.952;2023-05-10T01:20:48;5.97;;;3.63;;
17283;SDS011;8760;52.248;20.952;2023-05-10T01:23:35;7.03;;;3.17;;
17283;SDS011;8760;52.248;20.952;2023-05-10T01:26:33;4.43;;;3.50;;
17283;SDS011;8760;52.248;20.952;2023-05-10T01:29:18;5.50;;;3.63;;
17283;SDS011;8760;52.248;20.952;2023-05-10T01:32:12;7.50;;;3.90;;
17283;SDS011;8760;52.248;20.952;2023-05-10T01:34:48;5.80;;;3.60;;
17283;SDS011;8760;52.248;20.952;2023-05-10T01:37:22;6.87;;;3.63;;
17283;SDS011;8760;52.248;20.952;2023-05-10T01:39:55;6.80;;;3.53;;
17283;SDS011;8760;52.248;20.952;2023-05-10T01:42:29;5.43;;;3.20;;
17283;SDS011;8760;52.248;20.952;2023-05-10T01:45:07;7.97;;;3.40;;
17283;SDS011;8760;52.248;20.952;2023-05-10T01:47:46;5.97;;;3.20;;
17283;SDS011;8760;52.248;20.952;2023-05-10T01:50:22;6.60;;;3.67;;
17283;SDS011;8760;52.248;20.952;2023-05-10T01:52:54;8.13;;;4.10;;
17283;SDS011;8760;52.248;20.952;2023-05-10T01:55:24;4.73;;;3.50;;
17283;SDS011;8760;52.248;20.952;2023-05-10T01:57:55;5.67;;;3.30;;
17283;SDS011;8760;52.248;20.952;2023-05-10T02:00:27;6.40;;;3.80;;
17283;SDS011;8760;52.248;20.952;2023-05-10T02:02:57;5.60;;;3.60;;
17283;SDS011;8760;52.248;20.952;2023-05-10T02:05:26;8.43;;;3.87;;
17283;SDS011;8760;52.248;20.952;2023-05-10T02:07:56;5.63;;;3.57;;
17283;SDS011;8760;52.248;20.952;2023-05-10T02:10:25;4.70;;;3.40;;
17283;SDS011;8760;52.248;20.952;2023-05-10T02:12:53;9.20;;;3.77;;
17283;SDS011;8760;52.248;20.952;2023-05-10T02:15:24;8.10;;;3.70;;
17283;SDS011;8760;52.248;20.952;2023-05-10T02:17:53;5.40;;;3.27;;
17283;SDS011;8760;52.248;20.952;2023-05-10T02:20:23;6.17;;;3.57;;
17283;SDS011;8760;52.248;20.952;2023-05-10T02:22:52;6.73;;;3.47;;
17283;SDS011;8760;52.248;20.952;2023-05-10T02:25:21;6.63;;;3.70;;
17283;SDS011;8760;52.248;20.952;2023-05-10T02:27:50;5.83;;;3.50;;
17283;SDS011;8760;52.248;20.952;2023-05-10T02:30:20;7.67;;;3.30;;
17283;SDS011;8760;52.248;20.952;2023-05-10T02:32:47;4.93;;;3.40;;
17283;SDS011;8760;52.248;20.952;2023-05-10T02:35:16;9.57;;;4.27;;
17283;SDS011;8760;52.248;20.952;2023-05-10T02:37:44;4.37;;;3.23;;
17283;SDS011;8760;52.248;20.952;2023-05-10T02:40:12;6.60;;;3.97;;
17283;SDS011;8760;52.248;20.952;2023-05-10T02:42:42;6.67;;;4.10;;
17283;SDS011;8760;52.248;20.952;2023-05-10T02:45:12;5.00;;;3.60;;
17283;SDS011;8760;52.248;20.952;2023-05-10T02:47:43;7.07;;;3.60;;
17283;SDS011;8760;52.248;20.952;2023-05-10T02:50:10;4.70;;;3.40;;
17283;SDS011;8760;52.248;20.952;2023-05-10T02:52:39;5.60;;;3.23;;
17283;SDS011;8760;52.248;20.952;2023-05-10T02:55:12;7.50;;;3.30;;
17283;SDS011;8760;52.248;20.952;2023-05-10T02:57:48;3.70;;;3.03;;
17283;SDS011;8760;52.248;20.952;2023-05-10T03:00:18;6.97;;;3.90;;
17283;SDS011;8760;52.248;20.952;2023-05-10T03:02:45;5.77;;;3.93;;
17283;SDS011;8760;52.248;20.952;2023-05-10T03:05:12;7.70;;;3.70;;
17283;SDS011;8760;52.248;20.952;2023-05-10T03:07:39;6.20;;;3.50;;
17283;SDS011;8760;52.248;20.952;2023-05-10T03:10:06;6.40;;;4.17;;
17283;SDS011;8760;52.248;20.952;2023-05-10T03:12:41;6.03;;;3.53;;
17283;SDS011;8760;52.248;20.952;2023-05-10T03:15:22;6.00;;;3.43;;
17283;SDS011;8760;52.248;20.952;2023-05-10T03:18:01;7.37;;;3.37;;
17283;SDS011;8760;52.248;20.952;2023-05-10T03:20:34;5.03;;;3.47;;
17283;SDS011;8760;52.248;20.952;2023-05-10T03:23:04;9.43;;;3.70;;
17283;SDS011;8760;52.248;20.952;2023-05-10T03:25:45;8.93;;;3.67;;
17283;SDS011;8760;52.248;20.952;2023-05-10T03:28:16;5.00;;;3.17;;
17283;SDS011;8760;52.248;20.952;2023-05-10T03:30:45;6.80;;;3.40;;
17283;SDS011;8760;52.248;20.952;2023-05-10T03:33:13;7.53;;;3.77;;
17283;SDS011;8760;52.248;20.952;2023-05-10T03:35:40;6.90;;;3.83;;
17283;SDS011;8760;52.248;20.952;2023-05-10T03:38:07;5.07;;;3.90;;
17283;SDS011;8760;52.248;20.952;2023-05-10T03:40:33;9.63;;;4.13;;
17283;SDS011;8760;52.248;20.952;2023-05-10T03:43:00;6.43;;;3.53;;
17283;SDS011;8760;52.248;20.952;2023-05-10T03:45:29;9.90;;;3.93;;
17283;SDS011;8760;52.248;20.952;2023-05-10T03:47:56;4.77;;;3.80;;
17283;SDS011;8760;52.248;20.952;2023-05-10T03:50:23;8.03;;;3.40;;
17283;SDS011;8760;52.248;20.952;2023-05-10T03:52:51;10.03;;;3.87;;
17283;SDS011;8760;52.248;20.952;2023-05-10T03:55:18;6.53;;;4.03;;
17283;SDS011;8760;52.248;20.952;2023-05-10T03:57:45;5.03;;;3.47;;
17283;SDS011;8760;52.248;20.952;2023-05-10T04:00:14;4.57;;;3.60;;
17283;SDS011;8760;52.248;20.952;2023-05-10T04:02:43;6.77;;;3.73;;
17283;SDS011;8760;52.248;20.952;2023-05-10T04:05:10;6.33;;;4.13;;
17283;SDS011;8760;52.248;20.952;2023-05-10T04:07:37;5.93;;;4.00;;
17283;SDS011;8760;52.248;20.952;2023-05-10T04:10:04;6.20;;;3.70;;
17283;SDS011;8760;52.248;20.952;2023-05-10T04:12:32;5.13;;;3.57;;
17283;SDS011;8760;52.248;20.952;2023-05-10T04:14:59;7.67;;;3.90;;
17283;SDS011;8760;52.248;20.952;2023-05-10T04:17:26;9.53;;;5.40;;
17283;SDS011;8760;52.248;20.952;2023-05-10T04:19:54;5.53;;;3.53;;
17283;SDS011;8760;52.248;20.952;2023-05-10T04:22:22;7.87;;;3.90;;
17283;SDS011;8760;52.248;20.952;2023-05-10T04:24:49;7.17;;;3.57;;
17283;SDS011;8760;52.248;20.952;2023-05-10T04:27:16;4.33;;;3.33;;
17283;SDS011;8760;52.248;20.952;2023-05-10T04:29:43;11.10;;;4.40;;
17283;SDS011;8760;52.248;20.952;2023-05-10T04:32:09;10.03;;;3.93;;
17283;SDS011;8760;52.248;20.952;2023-05-10T04:34:36;6.90;;;3.70;;
17283;SDS011;8760;52.248;20.952;2023-05-10T04:37:05;8.30;;;4.70;;
17283;SDS011;8760;52.248;20.952;2023-05-10T04:39:32;6.40;;;3.73;;
17283;SDS011;8760;52.248;20.952;2023-05-10T04:42:00;7.33;;;3.80;;
17283;SDS011;8760;52.248;20.952;2023-05-10T04:44:27;7.77;;;3.63;;
17283;SDS011;8760;52.248;20.952;2023-05-10T04:46:54;5.97;;;3.73;;
17283;SDS011;8760;52.248;20.952;2023-05-10T04:49:21;9.87;;;3.73;;
17283;SDS011;8760;52.248;20.952;2023-05-10T04:51:48;8.53;;;3.80;;
17283;SDS011;8760;52.248;20.952;2023-05-10T04:54:16;5.00;;;3.43;;
17283;SDS011;8760;52.248;20.952;2023-05-10T04:56:43;4.90;;;3.40;;
17283;SDS011;8760;52.248;20.952;2023-05-10T04:59:10;6.77;;;3.40;;
17283;SDS011;8760;52.248;20.952;2023-05-10T05:01:37;7.00;;;3.77;;
17283;SDS011;8760;52.248;20.952;2023-05-10T05:04:04;9.13;;;3.80;;
17283;SDS011;8760;52.248;20.952;2023-05-10T05:06:31;10.60;;;4.03;;
17283;SDS011;8760;52.248;20.952;2023-05-10T05:08:58;5.30;;;3.47;;
17283;SDS011;8760;52.248;20.952;2023-05-10T05:11:26;6.83;;;3.30;;
17283;SDS011;8760;52.248;20.952;2023-05-10T05:13:53;6.63;;;3.50;;
17283;SDS011;8760;52.248;20.952;2023-05-10T05:16:20;9.27;;;4.00;;
17283;SDS011;8760;52.248;20.952;2023-05-10T05:18:47;7.97;;;3.37;;
17283;SDS011;8760;52.248;20.952;2023-05-10T05:21:14;6.10;;;4.13;;
17283;SDS011;8760;52.248;20.952;2023-05-10T05:23:42;6.33;;;3.70;;
17283;SDS011;8760;52.248;20.952;2023-05-10T05:26:09;11.07;;;4.20;;
17283;SDS011;8760;52.248;20.952;2023-05-10T05:28:38;10.17;;;4.77;;
17283;SDS011;8760;52.248;20.952;2023-05-10T05:31:04;6.00;;;3.30;;
17283;SDS011;8760;52.248;20.952;2023-05-10T05:33:33;9.60;;;3.73;;
17283;SDS011;8760;52.248;20.952;2023-05-10T05:36:00;9.03;;;3.63;;
17283;SDS011;8760;52.248;20.952;2023-05-10T05:38:27;8.37;;;3.57;;
17283;SDS011;8760;52.248;20.952;2023-05-10T05:40:54;6.97;;;3.67;;
17283;SDS011;8760;52.248;20.952;2023-05-10T05:43:21;8.57;;;3.27;;
17283;SDS011;8760;52.248;20.952;2023-05-10T05:45:51;5.83;;;3.17;;
17283;SDS011;8760;52.248;20.952;2023-05-10T05:48:18;7.40;;;3.37;;
17283;SDS011;8760;52.248;20.952;2023-05-10T05:50:45;10.20;;;3.83;;
17283;SDS011;8760;52.248;20.952;2023-05-10T05:53:12;10.20;;;3.87;;
17283;SDS011;8760;52.248;20.952;2023-05-10T05:55:39;8.83;;;4.17;;
17283;SDS011;8760;52.248;20.952;2023-05-10T05:58:06;8.00;;;3.60;;
17283;SDS011;8760;52.248;20.952;2023-05-10T06:00:33;9.53;;;3.50;;
17283;SDS011;8760;52.248;20.952;2023-05-10T06:03:01;6.83;;;3.30;;
17283;SDS011;8760;52.248;20.952;2023-05-10T06:05:29;8.67;;;4.57;;
17283;SDS011;8760;52.248;20.952;2023-05-10T06:07:56;5.83;;;3.10;;
17283;SDS011;8760;52.248;20.952;2023-05-10T06:10:23;7.17;;;3.20;;
17283;SDS011;8760;52.248;20.952;2023-05-10T06:12:50;9.73;;;3.90;;
17283;SDS011;8760;52.248;20.952;2023-05-10T06:15:17;6.87;;;3.37;;
17283;SDS011;8760;52.248;20.952;2023-05-10T06:17:44;7.37;;;3.70;;
17283;SDS011;8760;52.248;20.952;2023-05-10T06:20:13;9.43;;;3.57;;
17283;SDS011;8760;52.248;20.952;2023-05-10T06:22:40;6.20;;;3.30;;
17283;SDS011;8760;52.248;20.952;2023-05-10T06:25:08;4.97;;;3.40;;
17283;SDS011;8760;52.248;20.952;2023-05-10T06:27:36;5.90;;;3.40;;
17283;SDS011;8760;52.248;20.952;2023-05-10T06:30:03;8.37;;;3.83;;
17283;SDS011;8760;52.248;20.952;2023-05-10T06:32:31;9.93;;;4.43;;
17283;SDS011;8760;52.248;20.952;2023-05-10T06:34:58;7.43;;;3.40;;
17283;SDS011;8760;52.248;20.952;2023-05-10T06:37:26;10.30;;;3.60;;
17283;SDS011;8760;52.248;20.952;2023-05-10T06:39:53;6.97;;;3.30;;
17283;SDS011;8760;52.248;20.952;2023-05-10T06:42:20;6.50;;;3.57;;
17283;SDS011;8760;52.248;20.952;2023-05-10T06:44:47;7.30;;;3.30;;
17283;SDS011;8760;52.248;20.952;2023-05-10T06:47:13;9.60;;;3.43;;
17283;SDS011;8760;52.248;20.952;2023-05-10T06:49:40;8.50;;;3.60;;
17283;SDS011;8760;52.248;20.952;2023-05-10T06:52:07;5.83;;;3.40;;
17283;SDS011;8760;52.248;20.952;2023-05-10T06:54:35;5.60;;;3.07;;
17283;SDS011;8760;52.248;20.952;2023-05-10T06:57:02;7.73;;;3.30;;
17283;SDS011;8760;52.248;20.952;2023-05-10T06:59:29;5.17;;;3.10;;
17283;SDS011;8760;52.248;20.952;2023-05-10T07:01:56;7.37;;;2.87;;
17283;SDS011;8760;52.248;20.952;2023-05-10T07:04:23;5.47;;;3.03;;
17283;SDS011;8760;52.248;20.952;2023-05-10T07:06:50;7.07;;;3.05;;
17283;SDS011;8760;52.248;20.952;2023-05-10T07:09:16;6.03;;;2.80;;
17283;SDS011;8760;52.248;20.952;2023-05-10T07:11:45;5.40;;;2.93;;
17283;SDS011;8760;52.248;20.952;2023-05-10T07:14:13;6.95;;;2.90;;
17283;SDS011;8760;52.248;20.952;2023-05-10T07:16:39;5.25;;;2.92;;
17283;SDS011;8760;52.248;20.952;2023-05-10T07:19:07;6.85;;;2.35;;
17283;SDS011;8760;52.248;20.952;2023-05-10T07:21:34;4.20;;;2.50;;
17283;SDS011;8760;52.248;20.952;2023-05-10T07:24:01;11.10;;;3.30;;
17283;SDS011;8760;52.248;20.952;2023-05-10T07:26:28;11.60;;;3.30;;
17283;SDS011;8760;52.248;20.952;2023-05-10T07:28:56;4.95;;;2.53;;
17283;SDS011;8760;52.248;20.952;2023-05-10T07:31:23;5.65;;;2.15;;
17283;SDS011;8760;52.248;20.952;2023-05-10T07:33:50;3.42;;;2.70;;
17283;SDS011;8760;52.248;20.952;2023-05-10T07:36:17;5.53;;;2.70;;
17283;SDS011;8760;52.248;20.952;2023-05-10T07:38:43;4.22;;;2.33;;
17283;SDS011;8760;52.248;20.952;2023-05-10T07:41:11;3.92;;;2.30;;
17283;SDS011;8760;52.248;20.952;2023-05-10T07:43:37;2.67;;;2.10;;
17283;SDS011;8760;52.248;20.952;2023-05-10T07:46:06;5.70;;;2.40;;
17283;SDS011;8760;52.248;20.952;2023-05-10T07:48:35;4.35;;;2.13;;
17283;SDS011;8760;52.248;20.952;2023-05-10T07:51:02;3.58;;;2.30;;
17283;SDS011;8760;52.248;20.952;2023-05-10T07:53:29;5.03;;;1.92;;
17283;SDS011;8760;52.248;20.952;2023-05-10T07:55:57;6.57;;;2.25;;
17283;SDS011;8760;52.248;20.952;2023-05-10T07:58:24;3.75;;;2.08;;
17283;SDS011;8760;52.248;20.952;2023-05-10T08:00:51;5.43;;;2.30;;
17283;SDS011;8760;52.248;20.952;2023-05-10T08:03:20;5.88;;;2.30;;
17283;SDS011;8760;52.248;20.952;2023-05-10T08:05:46;6.22;;;2.13;;
17283;SDS011;8760;52.248;20.952;2023-05-10T08:08:13;6.63;;;2.25;;
17283;SDS011;8760;52.248;20.952;2023-05-10T08:10:41;5.88;;;2.47;;
17283;SDS011;8760;52.248;20.952;2023-05-10T08:13:07;9.25;;;2.42;;
17283;SDS011;8760;52.248;20.952;2023-05-10T08:15:34;6.88;;;2.40;;
17283;SDS011;8760;52.248;20.952;2023-05-10T08:18:01;12.00;;;2.50;;
17283;SDS011;8760;52.248;20.952;2023-05-10T08:20:30;6.25;;;1.85;;
17283;SDS011;8760;52.248;20.952;2023-05-10T08:22:57;3.67;;;1.90;;
17283;SDS011;8760;52.248;20.952;2023-05-10T08:25:24;6.60;;;2.10;;
17283;SDS011;8760;52.248;20.952;2023-05-10T08:27:51;3.90;;;2.00;;
17283;SDS011;8760;52.248;20.952;2023-05-10T08:30:18;2.65;;;1.80;;
17283;SDS011;8760;52.248;20.952;2023-05-10T08:32:44;4.22;;;2.03;;
17283;SDS011;8760;52.248;20.952;2023-05-10T08:35:11;3.40;;;1.95;;
17283;SDS011;8760;52.248;20.952;2023-05-10T08:37:39;5.30;;;2.10;;
17283;SDS011;8760;52.248;20.952;2023-05-10T08:40:07;4.32;;;2.38;;
17283;SDS011;8760;52.248;20.952;2023-05-10T08:42:39;26.52;;;2.55;;
17283;SDS011;8760;52.248;20.952;2023-05-10T08:45:09;6.28;;;2.00;;
17283;SDS011;8760;52.248;20.952;2023-05-10T08:47:37;4.95;;;2.22;;
17283;SDS011;8760;52.248;20.952;2023-05-10T08:50:06;17.33;;;3.10;;
17283;SDS011;8760;52.248;20.952;2023-05-10T08:52:33;3.92;;;2.25;;
17283;SDS011;8760;52.248;20.952;2023-05-10T08:55:06;5.13;;;2.00;;
17283;SDS011;8760;52.248;20.952;2023-05-10T08:57:34;4.75;;;2.40;;
17283;SDS011;8760;52.248;20.952;2023-05-10T09:00:02;7.22;;;2.22;;
17283;SDS011;8760;52.248;20.952;2023-05-10T09:02:30;5.88;;;2.65;;
17283;SDS011;8760;52.248;20.952;2023-05-10T09:04:57;2.75;;;1.98;;
17283;SDS011;8760;52.248;20.952;2023-05-10T09:07:24;3.55;;;2.15;;
17283;SDS011;8760;52.248;20.952;2023-05-10T09:09:52;3.67;;;1.95;;
17283;SDS011;8760;52.248;20.952;2023-05-10T09:12:20;3.92;;;2.10;;
17283;SDS011;8760;52.248;20.952;2023-05-10T09:14:47;3.90;;;1.98;;
17283;SDS011;8760;52.248;20.952;2023-05-10T09:17:16;7.47;;;3.13;;
17283;SDS011;8760;52.248;20.952;2023-05-10T09:19:44;6.40;;;2.30;;
17283;SDS011;8760;52.248;20.952;2023-05-10T09:22:11;3.20;;;2.00;;
17283;SDS011;8760;52.248;20.952;2023-05-10T09:24:38;9.07;;;2.30;;
17283;SDS011;8760;52.248;20.952;2023-05-10T09:27:11;5.90;;;2.25;;
17283;SDS011;8760;52.248;20.952;2023-05-10T09:29:41;5.30;;;2.05;;
17283;SDS011;8760;52.248;20.952;2023-05-10T09:32:08;4.72;;;1.90;;
17283;SDS011;8760;52.248;20.952;2023-05-10T09:34:36;4.13;;;2.10;;
17283;SDS011;8760;52.248;20.952;2023-05-10T09:37:05;6.85;;;4.50;;
17283;SDS011;8760;52.248;20.952;2023-05-10T09:39:33;4.80;;;2.28;;
17283;SDS011;8760;52.248;20.952;2023-05-10T09:42:02;4.03;;;2.25;;
17283;SDS011;8760;52.248;20.952;2023-05-10T09:44:31;5.82;;;2.20;;
17283;SDS011;8760;52.248;20.952;2023-05-10T09:46:59;5.15;;;2.50;;
17283;SDS011;8760;52.248;20.952;2023-05-10T09:49:26;3.22;;;2.20;;
17283;SDS011;8760;52.248;20.952;2023-05-10T09:52:00;4.88;;;2.00;;
17283;SDS011;8760;52.248;20.952;2023-05-10T09:54:28;4.13;;;2.30;;
17283;SDS011;8760;52.248;20.952;2023-05-10T09:56:55;6.55;;;2.35;;
17283;SDS011;8760;52.248;20.952;2023-05-10T09:59:24;5.65;;;2.28;;
17283;SDS011;8760;52.248;20.952;2023-05-10T10:01:53;7.45;;;2.30;;
17283;SDS011;8760;52.248;20.952;2023-05-10T10:04:23;3.97;;;2.33;;
17283;SDS011;8760;52.248;20.952;2023-05-10T10:07:00;12.65;;;2.60;;
17283;SDS011;8760;52.248;20.952;2023-05-10T10:09:28;4.72;;;2.63;;
17283;SDS011;8760;52.248;20.952;2023-05-10T10:11:55;5.35;;;2.30;;
17283;SDS011;8760;52.248;20.952;2023-05-10T10:14:22;7.07;;;2.20;;
17283;SDS011;8760;52.248;20.952;2023-05-10T10:16:50;8.20;;;2.40;;
17283;SDS011;8760;52.248;20.952;2023-05-10T10:19:19;5.40;;;2.10;;
17283;SDS011;8760;52.248;20.952;2023-05-10T10:21:46;5.28;;;2.30;;
17283;SDS011;8760;52.248;20.952;2023-05-10T10:24:13;7.80;;;2.50;;
17283;SDS011;8760;52.248;20.952;2023-05-10T10:26:40;4.47;;;2.15;;
17283;SDS011;8760;52.248;20.952;2023-05-10T10:29:11;5.15;;;2.10;;
17283;SDS011;8760;52.248;20.952;2023-05-10T10:31:47;7.25;;;2.55;;
17283;SDS011;8760;52.248;20.952;2023-05-10T10:34:25;4.93;;;2.20;;
17283;SDS011;8760;52.248;20.952;2023-05-10T10:36:54;3.55;;;2.08;;
17283;SDS011;8760;52.248;20.952;2023-05-10T10:39:22;4.50;;;2.10;;
17283;SDS011;8760;52.248;20.952;2023-05-10T10:41:50;4.18;;;2.15;;
17283;SDS011;8760;52.248;20.952;2023-05-10T10:44:33;4.53;;;2.58;;
17283;SDS011;8760;52.248;20.952;2023-05-10T10:47:04;8.02;;;2.25;;
17283;SDS011;8760;52.248;20.952;2023-05-10T10:49:38;4.25;;;2.25;;
17283;SDS011;8760;52.248;20.952;2023-05-10T10:54:59;5.10;;;2.50;;
17283;SDS011;8760;52.248;20.952;2023-05-10T10:57:28;6.57;;;2.10;;
17283;SDS011;8760;52.248;20.952;2023-05-10T11:00:17;8.77;;;2.50;;
17283;SDS011;8760;52.248;20.952;2023-05-10T11:02:49;9.77;;;2.40;;
17283;SDS011;8760;52.248;20.952;2023-05-10T11:08:06;4.50;;;2.20;;
17283;SDS011;8760;52.248;20.952;2023-05-10T11:10:35;9.05;;;2.15;;
17283;SDS011;8760;52.248;20.952;2023-05-10T11:13:03;7.38;;;2.35;;
17283;SDS011;8760;52.248;20.952;2023-05-10T11:15:31;9.38;;;2.58;;
17283;SDS011;8760;52.248;20.952;2023-05-10T11:17:59;4.13;;;2.00;;
17283;SDS011;8760;52.248;20.952;2023-05-10T11:20:43;3.42;;;1.90;;
17283;SDS011;8760;52.248;20.952;2023-05-10T11:23:12;6.78;;;2.17;;
17283;SDS011;8760;52.248;20.952;2023-05-10T11:25:42;5.05;;;2.03;;
17283;SDS011;8760;52.248;20.952;2023-05-10T11:28:10;7.53;;;2.70;;
17283;SDS011;8760;52.248;20.952;2023-05-10T11:30:38;4.68;;;2.20;;
17283;SDS011;8760;52.248;20.952;2023-05-10T11:33:05;6.43;;;2.40;;
17283;SDS011;8760;52.248;20.952;2023-05-10T11:35:36;7.43;;;2.70;;
17283;SDS011;8760;52.248;20.952;2023-05-10T11:38:06;6.28;;;2.45;;
17283;SDS011;8760;52.248;20.952;2023-05-10T11:40:33;8.85;;;2.50;;
17283;SDS011;8760;52.248;20.952;2023-05-10T11:43:00;7.55;;;3.30;;
17283;SDS011;8760;52.248;20.952;2023-05-10T11:45:28;3.40;;;2.33;;
17283;SDS011;8760;52.248;20.952;2023-05-10T11:47:56;5.03;;;2.40;;
17283;SDS011;8760;52.248;20.952;2023-05-10T11:50:24;4.45;;;2.90;;
17283;SDS011;8760;52.248;20.952;2023-05-10T11:52:51;4.10;;;2.25;;
17283;SDS011;8760;52.248;20.952;2023-05-10T11:55:20;8.35;;;2.28;;
17283;SDS011;8760;52.248;20.952;2023-05-10T11:57:47;3.70;;;2.15;;
17283;SDS011;8760;52.248;20.952;2023-05-10T12:00:17;6.28;;;2.30;;
17283;SDS011;8760;52.248;20.952;2023-05-10T12:02:44;5.13;;;2.00;;
17283;SDS011;8760;52.248;20.952;2023-05-10T12:05:11;8.57;;;2.08;;
17283;SDS011;8760;52.248;20.952;2023-05-10T12:07:39;6.55;;;2.60;;
17283;SDS011;8760;52.248;20.952;2023-05-10T12:10:06;6.97;;;2.60;;
17283;SDS011;8760;52.248;20.952;2023-05-10T12:12:39;8.10;;;2.83;;
17283;SDS011;8760;52.248;20.952;2023-05-10T12:15:11;3.78;;;2.40;;
17283;SDS011;8760;52.248;20.952;2023-05-10T12:17:38;6.47;;;2.25;;
17283;SDS011;8760;52.248;20.952;2023-05-10T12:20:12;7.28;;;2.80;;
17283;SDS011;8760;52.248;20.952;2023-05-10T12:22:40;11.18;;;2.60;;
17283;SDS011;8760;52.248;20.952;2023-05-10T12:25:09;6.20;;;2.10;;
17283;SDS011;8760;52.248;20.952;2023-05-10T12:27:36;5.50;;;2.13;;
17283;SDS011;8760;52.248;20.952;2023-05-10T12:30:05;6.07;;;2.10;;
17283;SDS011;8760;52.248;20.952;2023-05-10T12:32:39;4.18;;;2.30;;
17283;SDS011;8760;52.248;20.952;2023-05-10T12:35:07;9.13;;;2.20;;
17283;SDS011;8760;52.248;20.952;2023-05-10T12:37:34;3.55;;;2.20;;
17283;SDS011;8760;52.248;20.952;2023-05-10T12:40:05;6.88;;;2.03;;
17283;SDS011;8760;52.248;20.952;2023-05-10T12:42:34;7.50;;;1.98;;
17283;SDS011;8760;52.248;20.952;2023-05-10T12:45:03;4.85;;;1.95;;
17283;SDS011;8760;52.248;20.952;2023-05-10T12:47:30;7.68;;;1.80;;
17283;SDS011;8760;52.248;20.952;2023-05-10T12:49:59;5.63;;;2.05;;
17283;SDS011;8760;52.248;20.952;2023-05-10T12:52:30;10.32;;;1.95;;
17283;SDS011;8760;52.248;20.952;2023-05-10T12:54:58;3.95;;;2.20;;
17283;SDS011;8760;52.248;20.952;2023-05-10T12:57:25;4.13;;;1.92;;
17283;SDS011;8760;52.248;20.952;2023-05-10T12:59:52;3.47;;;1.90;;
17283;SDS011;8760;52.248;20.952;2023-05-10T13:02:21;2.67;;;1.83;;
17283;SDS011;8760;52.248;20.952;2023-05-10T13:04:48;2.90;;;2.28;;
17283;SDS011;8760;52.248;20.952;2023-05-10T13:07:16;4.35;;;1.60;;
17283;SDS011;8760;52.248;20.952;2023-05-10T13:09:43;6.53;;;2.05;;
17283;SDS011;8760;52.248;20.952;2023-05-10T13:12:10;5.40;;;2.10;;
17283;SDS011;8760;52.248;20.952;2023-05-10T13:14:37;5.47;;;2.28;;
17283;SDS011;8760;52.248;20.952;2023-05-10T13:17:06;3.72;;;2.20;;
17283;SDS011;8760;52.248;20.952;2023-05-10T13:19:35;6.32;;;2.25;;
17283;SDS011;8760;52.248;20.952;2023-05-10T13:22:02;4.18;;;1.83;;
17283;SDS011;8760;52.248;20.952;2023-05-10T13:24:30;6.85;;;2.20;;
17283;SDS011;8760;52.248;20.952;2023-05-10T13:26:57;6.78;;;2.40;;
17283;SDS011;8760;52.248;20.952;2023-05-10T13:29:25;7.07;;;2.25;;
17283;SDS011;8760;52.248;20.952;2023-05-10T13:31:53;3.17;;;1.90;;
17283;SDS011;8760;52.248;20.952;2023-05-10T13:34:19;8.70;;;2.33;;
17283;SDS011;8760;52.248;20.952;2023-05-10T13:36:48;4.55;;;1.95;;
17283;SDS011;8760;52.248;20.952;2023-05-10T13:39:15;3.90;;;2.00;;
17283;SDS011;8760;52.248;20.952;2023-05-10T13:41:42;5.60;;;2.08;;
17283;SDS011;8760;52.248;20.952;2023-05-10T13:44:11;5.53;;;2.00;;
17283;SDS011;8760;52.248;20.952;2023-05-10T13:46:39;5.38;;;1.85;;
17283;SDS011;8760;52.248;20.952;2023-05-10T13:49:08;4.88;;;2.03;;
17283;SDS011;8760;52.248;20.952;2023-05-10T13:51:35;8.23;;;2.10;;
17283;SDS011;8760;52.248;20.952;2023-05-10T13:54:04;1.95;;;1.70;;
17283;SDS011;8760;52.248;20.952;2023-05-10T13:56:31;2.35;;;2.00;;
17283;SDS011;8760;52.248;20.952;2023-05-10T13:58:59;4.53;;;2.00;;
17283;SDS011;8760;52.248;20.952;2023-05-10T14:01:26;4.63;;;2.13;;
17283;SDS011;8760;52.248;20.952;2023-05-10T14:03:54;2.60;;;1.85;;
17283;SDS011;8760;52.248;20.952;2023-05-10T14:06:21;2.95;;;1.98;;
17283;SDS011;8760;52.248;20.952;2023-05-10T14:08:47;8.27;;;2.33;;
17283;SDS011;8760;52.248;20.952;2023-05-10T14:11:16;3.78;;;1.85;;
17283;SDS011;8760;52.248;20.952;2023-05-10T14:13:43;3.75;;;1.98;;
17283;SDS011;8760;52.248;20.952;2023-05-10T14:16:10;5.30;;;2.08;;
17283;SDS011;8760;52.248;20.952;2023-05-10T14:18:39;2.72;;;1.75;;
17283;SDS011;8760;52.248;20.952;2023-05-10T14:21:07;4.07;;;1.88;;
17283;SDS011;8760;52.248;20.952;2023-05-10T14:23:34;4.03;;;2.05;;
17283;SDS011;8760;52.248;20.952;2023-05-10T14:26:01;4.75;;;2.22;;
17283;SDS011;8760;52.248;20.952;2023-05-10T14:28:30;3.63;;;2.05;;
17283;SDS011;8760;52.248;20.952;2023-05-10T14:30:57;3.65;;;1.80;;
17283;SDS011;8760;52.248;20.952;2023-05-10T14:33:24;4.57;;;2.28;;
17283;SDS011;8760;52.248;20.952;2023-05-10T14:35:53;4.38;;;1.80;;
17283;SDS011;8760;52.248;20.952;2023-05-10T14:38:21;4.07;;;1.70;;
17283;SDS011;8760;52.248;20.952;2023-05-10T14:40:48;4.18;;;2.08;;
17283;SDS011;8760;52.248;20.952;2023-05-10T14:43:16;5.03;;;1.75;;
17283;SDS011;8760;52.248;20.952;2023-05-10T14:45:44;3.90;;;2.17;;
17283;SDS011;8760;52.248;20.952;2023-05-10T14:48:12;3.10;;;1.70;;
17283;SDS011;8760;52.248;20.952;2023-05-10T14:50:42;4.78;;;2.20;;
17283;SDS011;8760;52.248;20.952;2023-05-10T14:53:09;2.83;;;2.00;;
17283;SDS011;8760;52.248;20.952;2023-05-10T14:55:36;2.42;;;1.63;;
17283;SDS011;8760;52.248;20.952;2023-05-10T14:58:04;5.72;;;2.22;;
17283;SDS011;8760;52.248;20.952;2023-05-10T15:00:31;8.20;;;2.00;;
17283;SDS011;8760;52.248;20.952;2023-05-10T15:03:00;6.15;;;2.00;;